Time;durP1;ratioP1;P1;durP2;ratioP2;P2;SDS_P1;SDS_P2;PMS_P1;PMS_P2;Temp;Humidity;BMP_temperature;BMP_pressure;BME280_temperature;BME280_humidity;BME280_pressure;Samples;Min_cycle;Max_cycle;Signal;HPM_P1;HPM_P2
2021/08/31 00:01:21;;;;;;;8.07;7.23;;;15.10;99.90;;;;;;5073034;28;20182;-66
2021/08/31 00:03:46;;;;;;;7.43;6.13;;;15.20;99.90;;;;;;5072683;28;20184;-65
2021/08/31 00:06:12;;;;;;;8.70;7.00;;;15.20;99.90;;;;;;5073237;28;20657;-64
2021/08/31 00:08:38;;;;;;;7.83;5.13;;;15.20;99.90;;;;;;5059164;28;20629;-65
2021/08/31 00:11:03;;;;;;;8.90;5.90;;;15.20;99.90;;;;;;5053939;28;20208;-64
2021/08/31 00:13:29;;;;;;;10.37;6.27;;;15.20;99.90;;;;;;5058426;28;20188;-64
2021/08/31 00:15:55;;;;;;;7.87;6.23;;;15.30;99.90;;;;;;5053166;28;20657;-64
2021/08/31 00:18:20;;;;;;;7.40;5.70;;;15.30;99.90;;;;;;5052713;28;20259;-65
2021/08/31 00:20:46;;;;;;;5.73;4.93;;;15.20;99.90;;;;;;5052803;28;20306;-64
2021/08/31 00:23:13;;;;;;;7.43;6.07;;;15.20;99.90;;;;;;5053156;28;20179;-65
2021/08/31 00:25:39;;;;;;;5.20;4.70;;;15.20;99.90;;;;;;5052894;28;20168;-65
2021/08/31 00:28:05;;;;;;;5.37;4.90;;;15.20;99.90;;;;;;5071470;28;20435;-65
2021/08/31 00:30:30;;;;;;;6.80;4.10;;;15.20;99.90;;;;;;5073008;28;20472;-66
2021/08/31 00:32:56;;;;;;;5.43;4.93;;;15.20;99.90;;;;;;5072608;28;20203;-65
2021/08/31 00:35:22;;;;;;;5.40;4.90;;;15.20;99.90;;;;;;5072977;28;20251;-65
2021/08/31 00:37:47;;;;;;;3.73;3.43;;;15.10;99.90;;;;;;5067420;28;20169;-64
2021/08/31 00:40:13;;;;;;;8.63;4.67;;;15.10;99.90;;;;;;5052605;28;20612;-65
2021/08/31 00:42:39;;;;;;;4.30;3.90;;;15.10;99.90;;;;;;5070840;28;20182;-65
2021/08/31 00:45:05;;;;;;;6.97;6.30;;;15.00;99.90;;;;;;5071645;28;20396;-66
2021/08/31 00:47:31;;;;;;;5.27;4.70;;;15.00;99.90;;;;;;5069917;28;20257;-65
2021/08/31 00:49:57;;;;;;;5.13;3.70;;;15.00;99.90;;;;;;5061765;28;21034;-66
2021/08/31 00:52:22;;;;;;;8.43;5.03;;;15.00;99.90;;;;;;5072968;28;20179;-65
2021/08/31 00:54:48;;;;;;;6.60;5.80;;;15.00;99.90;;;;;;5072665;28;20175;-65
2021/08/31 00:57:15;;;;;;;5.47;4.97;;;15.00;99.90;;;;;;5070593;28;20269;-68
2021/08/31 00:59:41;;;;;;;5.00;3.90;;;15.00;99.90;;;;;;5072379;28;20592;-65
2021/08/31 01:02:07;;;;;;;5.77;4.67;;;15.00;99.90;;;;;;5072776;28;20488;-65
2021/08/31 01:04:33;;;;;;;7.00;4.93;;;14.90;99.90;;;;;;5072164;28;20434;-65
2021/08/31 01:06:59;;;;;;;5.57;5.07;;;14.90;99.90;;;;;;5070884;28;20411;-67
2021/08/31 01:09:28;;;;;;;5.83;5.23;;;14.90;99.90;;;;;;5070349;28;20215;-65
2021/08/31 01:11:56;;;;;;;4.77;4.00;;;14.90;99.90;;;;;;5072697;28;20395;-65
2021/08/31 01:14:26;;;;;;;6.00;5.27;;;14.90;99.90;;;;;;5063626;28;20465;-63
2021/08/31 01:16:52;;;;;;;5.53;4.90;;;15.00;99.90;;;;;;5070375;28;20805;-66
2021/08/31 01:19:24;;;;;;;5.53;5.03;;;14.90;99.90;;;;;;5074672;28;20433;-64
2021/08/31 01:21:50;;;;;;;6.60;4.50;;;15.00;99.90;;;;;;5076041;28;20731;-65
2021/08/31 01:24:15;;;;;;;5.80;4.63;;;15.00;99.90;;;;;;5075907;28;20485;-65
2021/08/31 01:26:42;;;;;;;7.33;6.27;;;15.00;99.90;;;;;;5073546;28;20543;-66
2021/08/31 01:29:08;;;;;;;5.80;5.10;;;15.00;99.90;;;;;;5075061;28;20592;-66
2021/08/31 01:31:34;;;;;;;5.50;4.50;;;15.10;99.90;;;;;;5075665;28;20526;-65
2021/08/31 01:34:00;;;;;;;8.50;5.20;;;15.10;99.90;;;;;;5075777;28;20172;-65
2021/08/31 01:36:26;;;;;;;6.33;5.43;;;15.10;99.90;;;;;;5073790;28;20925;-65
2021/08/31 01:38:57;;;;;;;5.63;5.03;;;15.10;99.90;;;;;;5073399;28;20196;-65
2021/08/31 01:41:25;;;;;;;7.93;6.23;;;15.10;99.90;;;;;;5075175;28;20242;-66
2021/08/31 01:43:51;;;;;;;7.70;6.30;;;15.10;99.90;;;;;;5075797;28;20403;-66
2021/08/31 01:46:17;;;;;;;7.27;5.40;;;15.10;99.90;;;;;;5074797;28;20423;-66
2021/08/31 01:48:43;;;;;;;6.23;5.63;;;15.10;99.90;;;;;;5074995;28;20521;-65
2021/08/31 01:51:08;;;;;;;5.53;4.83;;;15.10;99.90;;;;;;5075613;28;20464;-65
2021/08/31 01:53:36;;;;;;;8.43;6.00;;;15.10;99.90;;;;;;5075478;28;20404;-66
2021/08/31 01:56:02;;;;;;;7.40;5.37;;;15.10;99.90;;;;;;5072126;28;21031;-66
2021/08/31 01:58:28;;;;;;;4.77;4.20;;;15.10;99.90;;;;;;5065112;28;20435;-65
2021/08/31 02:00:54;;;;;;;6.20;5.60;;;15.10;99.90;;;;;;5074186;28;20425;-65
2021/08/31 02:03:19;;;;;;;8.20;6.00;;;15.10;99.90;;;;;;5075166;28;20406;-66
2021/08/31 02:05:45;;;;;;;6.10;5.50;;;15.00;99.90;;;;;;5074855;28;20781;-67
2021/08/31 02:08:11;;;;;;;6.77;5.90;;;15.00;99.90;;;;;;5054652;28;20238;-65
2021/08/31 02:10:37;;;;;;;8.60;6.47;;;15.00;99.90;;;;;;5065197;28;20224;-65
2021/08/31 02:13:03;;;;;;;6.97;5.17;;;15.00;99.90;;;;;;5075169;28;20479;-66
2021/08/31 02:15:29;;;;;;;7.53;4.90;;;15.00;99.90;;;;;;5074313;28;20419;-65
2021/08/31 02:17:55;;;;;;;4.73;4.33;;;15.00;99.90;;;;;;5074741;28;20452;-64
2021/08/31 02:20:21;;;;;;;7.07;6.37;;;14.90;99.90;;;;;;5074848;28;20434;-65
2021/08/31 02:22:47;;;;;;;8.63;6.20;;;14.90;99.90;;;;;;5075040;28;20259;-65
2021/08/31 02:25:12;;;;;;;6.30;5.67;;;14.90;99.90;;;;;;5069523;28;20487;-66
2021/08/31 02:27:38;;;;;;;7.60;6.00;;;14.90;99.90;;;;;;5074304;28;20321;-66
2021/08/31 02:30:06;;;;;;;7.27;6.10;;;14.90;99.90;;;;;;5072594;28;20667;-65
2021/08/31 02:32:31;;;;;;;6.13;5.50;;;14.90;99.90;;;;;;5074498;28;20263;-66
2021/08/31 02:34:57;;;;;;;5.63;5.03;;;14.90;99.90;;;;;;5073955;28;20817;-65
2021/08/31 02:37:23;;;;;;;5.53;5.03;;;14.90;99.90;;;;;;5074316;28;20172;-65
2021/08/31 02:39:48;;;;;;;7.40;5.07;;;14.80;99.90;;;;;;5074015;28;20204;-65
2021/08/31 02:42:15;;;;;;;5.97;5.37;;;14.80;99.90;;;;;;5072143;28;20191;-66
2021/08/31 02:44:40;;;;;;;8.73;6.27;;;14.80;99.90;;;;;;5054298;28;20187;-65
2021/08/31 02:47:06;;;;;;;7.57;5.77;;;14.70;99.90;;;;;;5058566;28;20501;-64
2021/08/31 02:49:32;;;;;;;6.73;5.20;;;14.70;99.90;;;;;;5074032;28;20538;-65
2021/08/31 02:51:58;;;;;;;6.43;5.33;;;14.70;99.90;;;;;;5074419;28;20168;-65
2021/08/31 02:54:23;;;;;;;6.13;4.97;;;14.70;99.90;;;;;;5066904;28;20684;-65
2021/08/31 02:56:49;;;;;;;7.00;5.87;;;14.70;99.90;;;;;;5073712;28;20435;-66
2021/08/31 02:59:15;;;;;;;8.43;6.97;;;14.70;99.90;;;;;;5074125;28;20199;-65
2021/08/31 03:04:26;;;;;;;12.20;5.83;;;14.70;99.90;;;;;;5073918;28;20194;-65
2021/08/31 03:06:52;;;;;;;7.30;5.80;;;14.70;99.90;;;;;;5072123;28;20418;-66
2021/08/31 03:09:17;;;;;;;10.20;6.70;;;14.80;99.90;;;;;;5073330;28;20519;-65
2021/08/31 03:11:43;;;;;;;8.67;6.27;;;14.80;99.90;;;;;;5074035;28;20183;-65
2021/08/31 03:14:09;;;;;;;8.63;6.80;;;14.80;99.90;;;;;;5056995;28;20701;-65
2021/08/31 03:16:35;;;;;;;7.40;5.67;;;14.80;99.90;;;;;;5053594;28;20173;-67
2021/08/31 03:19:00;;;;;;;8.67;6.57;;;14.80;99.90;;;;;;5053655;28;20548;-63
2021/08/31 03:21:27;;;;;;;7.60;6.83;;;14.80;99.90;;;;;;5053782;28;20403;-65
2021/08/31 03:23:52;;;;;;;6.47;5.13;;;14.80;99.90;;;;;;5066947;28;20199;-64
2021/08/31 03:26:18;;;;;;;6.43;5.67;;;14.80;99.90;;;;;;5073906;28;20403;-65
2021/08/31 03:28:44;;;;;;;6.93;6.17;;;14.80;99.90;;;;;;5073096;28;20532;-66
2021/08/31 03:31:09;;;;;;;9.13;6.30;;;14.80;99.90;;;;;;5073438;28;20254;-66
2021/08/31 03:33:35;;;;;;;7.83;5.93;;;14.80;99.90;;;;;;5071713;28;20585;-65
2021/08/31 03:36:04;;;;;;;6.97;5.20;;;14.80;99.90;;;;;;5073064;28;20543;-65
2021/08/31 03:38:30;;;;;;;7.60;5.40;;;14.80;99.90;;;;;;5072514;28;20275;-65
2021/08/31 03:40:55;;;;;;;7.73;6.40;;;14.80;99.90;;;;;;5073148;28;20848;-64
2021/08/31 03:43:21;;;;;;;6.93;5.97;;;14.90;99.90;;;;;;5063053;28;20181;-65
2021/08/31 03:45:47;;;;;;;8.97;6.07;;;14.80;99.90;;;;;;5053216;28;20173;-64
2021/08/31 03:48:12;;;;;;;11.10;7.00;;;14.90;99.90;;;;;;5051685;28;20173;-66
2021/08/31 03:50:38;;;;;;;10.23;6.33;;;14.80;99.90;;;;;;5053059;28;20197;-65
2021/08/31 03:53:03;;;;;;;8.50;6.53;;;14.80;99.90;;;;;;5057201;28;20517;-66
2021/08/31 03:55:29;;;;;;;6.10;5.50;;;14.80;99.90;;;;;;5053175;28;20173;-65
2021/08/31 03:57:55;;;;;;;9.77;6.00;;;14.80;99.90;;;;;;5052849;28;20176;-64
2021/08/31 04:00:20;;;;;;;8.97;6.93;;;14.80;99.90;;;;;;5052845;28;20193;-65
2021/08/31 04:02:46;;;;;;;8.07;5.50;;;14.80;99.90;;;;;;5071862;28;20238;-65
2021/08/31 04:05:12;;;;;;;7.63;5.77;;;14.80;99.90;;;;;;5073241;28;20169;-64
2021/08/31 04:07:37;;;;;;;7.77;6.10;;;14.80;99.90;;;;;;5072299;28;20168;-65
2021/08/31 04:10:03;;;;;;;9.47;7.83;;;14.80;99.90;;;;;;5071914;28;20204;-65
2021/08/31 04:12:29;;;;;;;9.13;5.90;;;14.80;99.90;;;;;;5056428;28;20187;-64
2021/08/31 04:14:54;;;;;;;6.70;5.33;;;14.90;99.90;;;;;;5052958;28;20486;-64
2021/08/31 04:17:20;;;;;;;8.20;7.50;;;14.80;99.90;;;;;;5052650;28;20602;-64
2021/08/31 04:19:46;;;;;;;6.57;5.87;;;14.80;99.90;;;;;;5053082;28;20192;-65
2021/08/31 04:22:11;;;;;;;11.67;6.93;;;14.80;99.90;;;;;;5066154;28;20199;-66
2021/08/31 04:24:37;;;;;;;9.17;7.03;;;14.80;99.90;;;;;;5072780;28;20601;-65
2021/08/31 04:27:04;;;;;;;7.63;6.80;;;14.80;99.90;;;;;;5072741;28;20176;-66
2021/08/31 04:29:30;;;;;;;10.63;7.40;;;14.80;99.90;;;;;;5072938;28;20282;-64
2021/08/31 04:31:55;;;;;;;7.50;6.70;;;14.80;99.90;;;;;;5072071;28;20538;-65
2021/08/31 04:34:21;;;;;;;9.23;6.37;;;14.80;99.90;;;;;;5073050;28;20188;-62
2021/08/31 04:36:47;;;;;;;7.63;6.13;;;14.80;99.90;;;;;;5072220;28;20172;-64
2021/08/31 04:39:12;;;;;;;8.00;6.27;;;14.80;99.90;;;;;;5070189;28;20663;-65
2021/08/31 04:41:38;;;;;;;10.57;8.50;;;14.80;99.90;;;;;;5052729;28;20169;-64
2021/08/31 04:44:03;;;;;;;9.60;6.87;;;14.90;99.90;;;;;;5052834;28;20180;-65
2021/08/31 04:46:29;;;;;;;6.30;5.67;;;14.80;99.90;;;;;;5052701;28;20177;-70
2021/08/31 04:48:55;;;;;;;10.97;8.70;;;14.80;99.90;;;;;;5064320;28;20208;-66
2021/08/31 04:51:20;;;;;;;8.13;6.83;;;14.90;99.90;;;;;;5072370;28;20623;-66
2021/08/31 04:53:46;;;;;;;8.80;7.67;;;14.80;99.90;;;;;;5074217;28;20176;-65
2021/08/31 04:56:11;;;;;;;9.20;7.10;;;14.80;99.90;;;;;;5076441;28;20531;-65
2021/08/31 04:58:37;;;;;;;9.50;7.20;;;14.80;99.90;;;;;;5065881;28;20204;-66
2021/08/31 05:01:03;;;;;;;11.27;7.27;;;14.80;99.90;;;;;;5056294;28;20614;-65
2021/08/31 05:03:29;;;;;;;9.13;6.50;;;14.80;99.90;;;;;;5056240;28;20172;-65
2021/08/31 05:05:55;;;;;;;8.53;6.80;;;14.80;99.90;;;;;;5062797;28;20429;-65
2021/08/31 05:08:20;;;;;;;11.90;7.67;;;14.90;99.90;;;;;;5070636;28;20445;-66
2021/08/31 05:10:48;;;;;;;7.23;5.80;;;14.80;99.90;;;;;;5074616;28;20566;-64
2021/08/31 05:13:14;;;;;;;7.83;6.50;;;14.80;99.90;;;;;;5075919;28;20164;-65
2021/08/31 05:15:39;;;;;;;19.30;8.73;;;14.80;99.90;;;;;;5074910;28;20407;-66
2021/08/31 05:18:05;;;;;;;6.70;5.90;;;14.80;99.90;;;;;;5073196;28;20187;-66
2021/08/31 05:20:32;;;;;;;9.93;7.10;;;14.80;99.90;;;;;;5058601;28;20322;-64
2021/08/31 05:22:59;;;;;;;7.47;6.67;;;14.90;99.90;;;;;;5055416;28;20423;-65
2021/08/31 05:25:26;;;;;;;8.80;7.13;;;14.90;99.90;;;;;;5060232;28;20421;-66
2021/08/31 05:27:52;;;;;;;9.63;6.57;;;14.90;99.90;;;;;;5075306;28;20393;-65
2021/08/31 05:30:18;;;;;;;9.40;7.53;;;14.90;99.90;;;;;;5060436;28;20470;-65
2021/08/31 05:32:44;;;;;;;8.53;5.70;;;14.90;99.90;;;;;;5055637;28;20431;-66
2021/08/31 05:35:10;;;;;;;10.33;8.43;;;15.00;99.90;;;;;;5055759;28;20403;-66
2021/08/31 05:37:36;;;;;;;10.30;7.60;;;15.10;99.90;;;;;;5055211;28;20169;-65
2021/08/31 05:40:01;;;;;;;10.00;7.37;;;15.10;99.90;;;;;;5066860;28;20443;-64
2021/08/31 05:42:27;;;;;;;8.90;7.33;;;15.10;99.90;;;;;;5075673;28;20532;-64
2021/08/31 05:44:53;;;;;;;11.23;7.53;;;15.10;99.90;;;;;;5075543;28;20211;-66
2021/08/31 05:47:18;;;;;;;9.93;8.93;;;15.10;99.90;;;;;;5071855;28;20201;-64
2021/08/31 05:49:44;;;;;;;8.27;7.10;;;15.10;99.90;;;;;;5055501;28;20203;-67
2021/08/31 05:52:12;;;;;;;6.57;5.87;;;15.10;99.90;;;;;;5055214;28;20175;-63
2021/08/31 05:54:38;;;;;;;10.90;8.60;;;15.10;99.90;;;;;;5057432;28;20670;-65
2021/08/31 05:57:09;;;;;;;8.23;6.47;;;15.10;99.90;;;;;;5074099;28;20502;-64
2021/08/31 05:59:38;;;;;;;7.90;7.20;;;15.10;99.90;;;;;;5075331;28;20423;-66
2021/08/31 06:02:03;;;;;;;8.43;6.77;;;15.10;99.90;;;;;;5075126;28;20833;-65
2021/08/31 06:04:29;;;;;;;6.47;5.87;;;15.10;99.90;;;;;;5074698;28;20420;-65
2021/08/31 06:06:55;;;;;;;7.87;7.10;;;15.10;99.90;;;;;;5068365;28;20193;-64
2021/08/31 06:09:20;;;;;;;8.87;7.27;;;15.10;99.90;;;;;;5056850;28;20228;-65
2021/08/31 06:11:46;;;;;;;9.57;6.30;;;15.10;99.90;;;;;;5074922;28;20683;-66
2021/08/31 06:14:12;;;;;;;10.03;8.00;;;15.20;99.90;;;;;;5074891;28;20212;-64
2021/08/31 06:16:38;;;;;;;9.30;8.20;;;15.20;99.90;;;;;;5073923;28;20547;-63
2021/08/31 06:19:04;;;;;;;8.77;7.40;;;15.30;99.90;;;;;;5074599;28;20426;-64
2021/08/31 06:21:30;;;;;;;12.47;7.67;;;15.40;99.90;;;;;;5074765;28;20411;-64
2021/08/31 06:23:55;;;;;;;7.20;6.47;;;15.50;99.90;;;;;;5069523;28;20225;-63
2021/08/31 06:26:21;;;;;;;9.30;6.67;;;15.60;99.90;;;;;;5054576;28;20506;-67
2021/08/31 06:28:47;;;;;;;9.53;7.37;;;15.70;99.90;;;;;;5072211;28;20196;-64
2021/08/31 06:31:12;;;;;;;10.53;6.50;;;15.70;99.90;;;;;;5074343;28;20232;-66
2021/08/31 06:33:38;;;;;;;6.97;6.20;;;15.90;99.90;;;;;;5074764;28;20197;-65
2021/08/31 06:36:04;;;;;;;7.50;6.37;;;16.00;99.90;;;;;;5074530;28;20177;-67
2021/08/31 06:38:30;;;;;;;10.50;6.10;;;16.10;99.90;;;;;;5063521;28;20193;-65
2021/08/31 06:40:56;;;;;;;8.07;6.67;;;16.30;99.90;;;;;;5074373;28;20403;-66
2021/08/31 06:43:21;;;;;;;6.60;5.40;;;16.40;99.90;;;;;;5074236;28;20528;-67
2021/08/31 06:45:47;;;;;;;6.60;5.10;;;16.60;99.90;;;;;;5073800;28;20175;-67
2021/08/31 06:48:13;;;;;;;7.27;6.53;;;16.70;99.90;;;;;;5072569;28;20182;-67
2021/08/31 06:50:38;;;;;;;7.37;6.03;;;16.70;99.90;;;;;;5083804;28;20201;-66
2021/08/31 06:53:04;;;;;;;6.23;5.37;;;16.70;99.90;;;;;;5091600;28;20207;-67
2021/08/31 06:55:30;;;;;;;14.80;6.03;;;16.60;99.90;;;;;;5094391;28;20165;-65
2021/08/31 06:57:56;;;;;;;5.90;5.40;;;16.60;99.90;;;;;;5084487;28;20781;-66
2021/08/31 07:00:21;;;;;;;5.60;4.83;;;16.50;99.90;;;;;;5069058;28;20181;-65
2021/08/31 07:02:47;;;;;;;5.13;4.60;;;16.50;99.90;;;;;;5073773;28;20394;-65
2021/08/31 07:05:13;;;;;;;6.30;4.80;;;16.50;99.90;;;;;;5072513;28;20211;-65
2021/08/31 07:07:39;;;;;;;6.07;5.47;;;16.60;99.90;;;;;;5067954;28;20182;-66
2021/08/31 07:10:05;;;;;;;7.00;5.40;;;16.70;99.90;;;;;;5053729;28;20204;-64
2021/08/31 07:12:31;;;;;;;8.23;5.90;;;16.90;99.90;;;;;;5055078;28;20417;-67
2021/08/31 07:14:58;;;;;;;7.10;5.40;;;17.00;99.90;;;;;;5073561;28;20898;-64
2021/08/31 07:17:25;;;;;;;5.17;4.67;;;17.20;99.90;;;;;;5073030;28;20413;-65
2021/08/31 07:19:51;;;;;;;5.97;5.07;;;17.30;99.90;;;;;;5072252;28;20786;-71
2021/08/31 07:22:17;;;;;;;4.90;4.50;;;17.40;99.90;;;;;;5072803;28;20845;-65
2021/08/31 07:24:43;;;;;;;5.20;4.27;;;17.60;99.90;;;;;;5063983;28;20416;-64
2021/08/31 07:27:09;;;;;;;4.80;4.40;;;17.80;99.90;;;;;;5052965;28;20416;-64
2021/08/31 07:29:34;;;;;;;5.20;4.70;;;17.90;99.90;;;;;;5072368;28;20644;-65
2021/08/31 07:32:00;;;;;;;5.80;4.33;;;18.00;99.90;;;;;;5072424;28;20271;-65
2021/08/31 07:34:28;;;;;;;6.70;4.70;;;17.80;99.90;;;;;;5072809;28;20172;-66
2021/08/31 07:36:57;;;;;;;4.50;4.10;;;17.70;99.90;;;;;;5072789;28;20411;-64
2021/08/31 07:39:23;;;;;;;6.30;5.10;;;17.70;99.90;;;;;;5073307;28;20451;-68
2021/08/31 07:41:50;;;;;;;6.47;5.43;;;17.70;99.90;;;;;;5071771;28;20515;-66
2021/08/31 07:44:16;;;;;;;6.00;4.80;;;17.70;99.90;;;;;;5052723;28;20239;-68
2021/08/31 07:46:46;;;;;;;5.10;4.60;;;17.70;99.90;;;;;;5053445;28;20451;-64
2021/08/31 07:49:15;;;;;;;19.03;4.60;;;17.60;99.90;;;;;;5061485;28;20970;-68
2021/08/31 07:51:42;;;;;;;6.87;4.70;;;17.50;99.90;;;;;;5070465;28;20400;-66
2021/08/31 07:54:08;;;;;;;5.00;3.90;;;17.30;99.90;;;;;;5059983;28;20441;-63
2021/08/31 07:56:34;;;;;;;6.57;5.10;;;17.10;99.90;;;;;;5054102;28;20402;-71
2021/08/31 07:59:01;;;;;;;5.50;5.00;;;17.00;99.90;;;;;;5071750;28;20440;-65
2021/08/31 08:01:26;;;;;;;5.97;5.07;;;17.00;99.90;;;;;;5073104;28;20466;-66
2021/08/31 08:03:52;;;;;;;6.33;3.97;;;17.10;99.90;;;;;;5072115;28;20415;-66
2021/08/31 08:06:18;;;;;;;4.83;4.40;;;17.30;99.90;;;;;;5072872;28;20171;-66
2021/08/31 08:08:43;;;;;;;5.27;4.77;;;17.50;99.90;;;;;;5072524;28;20197;-65
2021/08/31 08:11:09;;;;;;;5.57;4.07;;;17.70;99.90;;;;;;5073084;28;20249;-65
2021/08/31 08:13:35;;;;;;;5.77;4.63;;;17.70;99.90;;;;;;5069835;28;20234;-65
2021/08/31 08:16:00;;;;;;;3.50;3.20;;;17.70;99.90;;;;;;5073046;28;20176;-65
2021/08/31 08:18:26;;;;;;;6.60;4.03;;;17.80;99.90;;;;;;5072302;28;20560;-65
2021/08/31 08:20:52;;;;;;;3.93;3.43;;;17.90;99.90;;;;;;5073089;28;20173;-66
2021/08/31 08:23:18;;;;;;;4.90;4.03;;;17.90;99.90;;;;;;5059884;28;20659;-65
2021/08/31 08:25:43;;;;;;;4.60;3.97;;;17.80;99.90;;;;;;5066671;28;20460;-65
2021/08/31 08:28:09;;;;;;;4.87;4.33;;;17.60;99.90;;;;;;5072936;28;20194;-64
2021/08/31 08:30:35;;;;;;;5.23;4.73;;;17.70;99.90;;;;;;5076983;28;20349;-63
2021/08/31 08:33:01;;;;;;;4.97;4.17;;;17.80;99.90;;;;;;5069051;28;20521;-64
2021/08/31 08:35:27;;;;;;;4.87;4.43;;;18.00;99.90;;;;;;5060600;28;20741;-66
2021/08/31 08:37:53;;;;;;;4.80;4.40;;;18.20;99.90;;;;;;5069895;28;20173;-65
2021/08/31 08:40:19;;;;;;;9.80;3.53;;;18.40;99.90;;;;;;5076742;28;20456;-64
2021/08/31 08:42:44;;;;;;;4.70;4.10;;;18.50;99.90;;;;;;5071054;28;20355;-64
2021/08/31 08:45:11;;;;;;;4.53;4.13;;;18.70;99.90;;;;;;5068879;28;20969;-65
2021/08/31 08:47:37;;;;;;;4.80;4.00;;;18.90;99.90;;;;;;5062020;28;20181;-66
2021/08/31 08:50:03;;;;;;;3.73;3.43;;;19.00;99.90;;;;;;5058562;28;20509;-64
2021/08/31 08:52:29;;;;;;;4.60;4.20;;;19.00;99.90;;;;;;5076105;28;20415;-64
2021/08/31 08:54:55;;;;;;;4.53;3.70;;;19.10;99.90;;;;;;5076409;28;20430;-65
2021/08/31 08:57:28;;;;;;;8.70;4.73;;;19.10;99.90;;;;;;5074779;28;20183;-65
2021/08/31 08:59:54;;;;;;;3.80;3.50;;;19.20;99.90;;;;;;5076270;28;20271;-65
2021/08/31 09:02:41;;;;;;;4.43;4.03;;;19.20;99.90;;;;;;5074868;28;20494;-65
2021/08/31 09:05:13;;;;;;;3.37;3.07;;;19.30;99.90;;;;;;5076345;28;20179;-64
2021/08/31 09:07:42;;;;;;;4.33;4.00;;;19.40;99.90;;;;;;5075768;28;20431;-65
2021/08/31 09:10:25;;;;;;;3.70;3.40;;;19.30;99.90;;;;;;5075965;28;20816;-64
2021/08/31 09:12:53;;;;;;;4.07;3.03;;;19.30;99.90;;;;;;5075848;28;20480;-65
2021/08/31 09:15:24;;;;;;;4.20;3.80;;;19.10;99.90;;;;;;5075804;28;20425;-65
2021/08/31 09:20:38;;;;;;;4.03;3.50;;;19.30;99.90;;;;;;5075926;28;20394;-64
2021/08/31 09:23:06;;;;;;;4.17;3.33;;;19.40;99.90;;;;;;5075930;28;20381;-64
2021/08/31 09:25:37;;;;;;;4.10;3.60;;;19.40;99.90;;;;;;5075858;28;20411;-64
2021/08/31 09:28:17;;;;;;;4.30;3.90;;;19.40;99.90;;;;;;5075322;28;20393;-65
2021/08/31 09:30:42;;;;;;;3.33;3.03;;;19.30;99.90;;;;;;5075927;28;20442;-63
2021/08/31 09:33:16;;;;;;;6.07;5.57;;;19.20;99.90;;;;;;5075399;28;20480;-64
2021/08/31 09:35:57;;;;;;;3.63;3.33;;;19.10;99.90;;;;;;5075442;28;20651;-64
2021/08/31 09:38:23;;;;;;;3.67;3.20;;;19.00;99.90;;;;;;5075476;28;20407;-65
2021/08/31 09:40:52;;;;;;;5.87;4.53;;;18.80;99.90;;;;;;5075713;28;20406;-64
2021/08/31 09:43:22;;;;;;;5.10;3.30;;;18.70;99.90;;;;;;5075497;28;20642;-64
2021/08/31 09:45:50;;;;;;;3.90;3.43;;;18.60;99.90;;;;;;5075852;28;20407;-63
2021/08/31 09:48:18;;;;;;;4.27;3.53;;;18.50;99.90;;;;;;5074829;28;20466;-64
2021/08/31 09:50:57;;;;;;;8.63;3.47;;;18.60;99.90;;;;;;5075305;28;20461;-64
2021/08/31 09:53:26;;;;;;;5.60;5.10;;;18.50;99.90;;;;;;5075939;28;20381;-64
2021/08/31 09:56:13;;;;;;;3.47;3.20;;;18.60;99.90;;;;;;5075609;28;20540;-65
2021/08/31 09:58:41;;;;;;;3.07;2.87;;;18.60;99.90;;;;;;5074862;28;20397;-65
2021/08/31 10:01:08;;;;;;;3.43;3.10;;;18.60;99.90;;;;;;5075523;28;20403;-64
2021/08/31 10:03:34;;;;;;;2.93;2.73;;;18.60;99.90;;;;;;5075018;28;20398;-66
2021/08/31 10:06:02;;;;;;;2.87;2.67;;;18.60;99.90;;;;;;5075382;28;20403;-66
2021/08/31 10:08:32;;;;;;;4.00;3.60;;;18.60;99.90;;;;;;5074632;28;20428;-65
2021/08/31 10:11:00;;;;;;;3.77;2.87;;;18.60;99.90;;;;;;5075033;28;20504;-65
2021/08/31 10:13:27;;;;;;;3.40;3.10;;;18.70;99.90;;;;;;5075473;28;20473;-65
2021/08/31 10:15:56;;;;;;;4.50;3.30;;;18.80;99.90;;;;;;5075189;28;20402;-66
2021/08/31 10:18:25;;;;;;;3.30;3.00;;;18.90;99.90;;;;;;5074366;28;20828;-65
2021/08/31 10:21:03;;;;;;;4.00;3.67;;;19.00;99.90;;;;;;5075106;28;20935;-65
2021/08/31 10:23:48;;;;;;;4.73;3.50;;;19.00;99.90;;;;;;5075070;28;20762;-63
2021/08/31 10:26:27;;;;;;;6.13;4.10;;;19.10;99.90;;;;;;5074889;28;20464;-63
2021/08/31 10:29:15;;;;;;;3.37;3.07;;;19.20;99.90;;;;;;5072996;28;20959;-64
2021/08/31 10:31:45;;;;;;;3.30;3.00;;;19.40;99.90;;;;;;5074685;28;20405;-63
2021/08/31 10:34:29;;;;;;;5.60;3.50;;;19.50;99.90;;;;;;5074784;28;20366;-64
2021/08/31 10:37:10;;;;;;;3.53;2.97;;;19.70;99.90;;;;;;5074303;28;20460;-64
2021/08/31 10:39:50;;;;;;;4.23;3.67;;;19.60;99.90;;;;;;5074672;28;20488;-64
2021/08/31 10:42:24;;;;;;;3.93;3.40;;;19.70;99.90;;;;;;5074761;28;20365;-64
2021/08/31 10:44:51;;;;;;;2.80;2.60;;;19.90;99.90;;;;;;5054635;28;20426;-65
2021/08/31 10:47:39;;;;;;;3.70;3.40;;;20.20;99.90;;;;;;5052973;28;20430;-64
2021/08/31 10:50:07;;;;;;;4.60;3.00;;;20.30;99.90;;;;;;5069482;28;20443;-64
2021/08/31 10:52:45;;;;;;;2.97;2.77;;;20.60;99.90;;;;;;5072521;28;20422;-65
2021/08/31 10:55:29;;;;;;;3.10;2.80;;;20.70;99.90;;;;;;5074507;28;20429;-65
2021/08/31 10:57:56;;;;;;;3.17;2.87;;;20.90;99.90;;;;;;5074041;28;20406;-65
2021/08/31 11:00:21;;;;;;;3.67;3.37;;;21.00;99.90;;;;;;5074299;28;20496;-65
2021/08/31 11:02:50;;;;;;;4.90;3.07;;;20.90;99.90;;;;;;5074101;28;20467;-64
2021/08/31 11:05:22;;;;;;;3.07;2.87;;;20.90;99.90;;;;;;5072916;28;20185;-64
2021/08/31 11:07:59;;;;;;;4.10;2.60;;;21.00;99.90;;;;;;5073739;28;20884;-64
2021/08/31 11:10:36;;;;;;;3.20;3.00;;;21.20;99.90;;;;;;5072472;28;20794;-65
2021/08/31 11:13:10;;;;;;;3.17;2.70;;;21.30;99.90;;;;;;5074053;28;20829;-65
2021/08/31 11:15:37;;;;;;;3.63;3.33;;;21.40;99.90;;;;;;5072571;28;20435;-65
2021/08/31 11:18:08;;;;;;;6.00;3.30;;;21.50;99.90;;;;;;5073391;28;20401;-65
2021/08/31 11:20:36;;;;;;;3.40;3.10;;;21.60;99.90;;;;;;5074103;28;20399;-65
2021/08/31 11:23:18;;;;;;;3.23;2.90;;;21.90;99.90;;;;;;5073772;28;20905;-65
2021/08/31 11:25:55;;;;;;;3.03;2.83;;;22.10;99.90;;;;;;5072379;28;20821;-65
2021/08/31 11:28:29;;;;;;;3.10;2.80;;;22.00;99.90;;;;;;5073183;28;20423;-65
2021/08/31 11:30:56;;;;;;;3.83;2.60;;;22.00;99.90;;;;;;5073709;28;20450;-65
2021/08/31 11:33:24;;;;;;;3.30;2.83;;;21.80;99.90;;;;;;5072318;28;20759;-64
2021/08/31 11:35:57;;;;;;;3.00;2.80;;;21.50;99.90;;;;;;5073545;28;20407;-63
2021/08/31 11:38:33;;;;;;;2.73;2.53;;;21.10;99.90;;;;;;5072794;28;20496;-64
2021/08/31 11:41:19;;;;;;;3.30;3.10;;;21.00;99.90;;;;;;5073796;28;20759;-64
2021/08/31 11:43:55;;;;;;;2.83;2.63;;;20.90;99.90;;;;;;5073671;28;20396;-64
2021/08/31 11:46:27;;;;;;;3.17;2.97;;;20.70;99.90;;;;;;5073669;28;20379;-64
2021/08/31 11:49:14;;;;;;;3.07;2.87;;;20.80;99.90;;;;;;5072893;28;20424;-64
2021/08/31 11:51:55;;;;;;;3.63;2.93;;;20.90;99.90;;;;;;5073400;28;20789;-64
2021/08/31 11:54:22;;;;;;;3.13;2.60;;;21.10;99.90;;;;;;5073026;28;20413;-64
2021/08/31 11:56:57;;;;;;;3.40;3.10;;;21.10;99.90;;;;;;5072776;28;20435;-64
2021/08/31 11:59:36;;;;;;;3.23;2.90;;;21.10;99.90;;;;;;5073265;28;20421;-65
2021/08/31 12:02:16;;;;;;;5.03;3.27;;;21.00;99.90;;;;;;5073291;28;20408;-65
2021/08/31 12:04:54;;;;;;;3.83;3.47;;;21.10;99.90;;;;;;5072778;28;20497;-65
2021/08/31 12:07:27;;;;;;;3.03;2.83;;;21.40;99.90;;;;;;5072820;28;20438;-65
2021/08/31 12:09:54;;;;;;;3.30;3.00;;;21.60;99.90;;;;;;5073103;28;20930;-65
2021/08/31 12:12:21;;;;;;;4.17;3.77;;;21.60;99.90;;;;;;5071846;28;20917;-64
2021/08/31 12:14:48;;;;;;;3.90;3.30;;;21.60;99.90;;;;;;5072031;28;20409;-65
2021/08/31 12:17:27;;;;;;;3.90;3.10;;;21.50;99.90;;;;;;5072759;28;20524;-66
2021/08/31 12:20:08;;;;;;;5.37;3.83;;;21.30;99.90;;;;;;5072917;28;20488;-64
2021/08/31 12:22:37;;;;;;;3.30;2.80;;;21.10;99.90;;;;;;5072803;28;20432;-64
2021/08/31 12:25:04;;;;;;;3.27;3.03;;;21.10;99.90;;;;;;5073077;28;20772;-64
2021/08/31 12:28:02;;;;;;;3.00;2.77;;;20.90;99.90;;;;;;5072664;28;20387;-64
2021/08/31 12:30:43;;;;;;;3.90;3.03;;;20.90;99.90;;;;;;5071623;28;20426;-65
2021/08/31 12:33:11;;;;;;;3.70;3.40;;;20.80;99.90;;;;;;5072974;28;20470;-64
2021/08/31 12:35:44;;;;;;;2.83;2.63;;;20.70;99.90;;;;;;5073056;28;20814;-65
2021/08/31 12:38:23;;;;;;;3.20;2.70;;;20.50;99.90;;;;;;5072225;28;20466;-65
2021/08/31 12:40:55;;;;;;;4.70;3.43;;;20.40;99.90;;;;;;5072836;28;20407;-64
2021/08/31 12:43:23;;;;;;;5.00;3.37;;;20.40;99.90;;;;;;5073037;28;20395;-65
2021/08/31 12:45:51;;;;;;;3.77;2.90;;;20.50;99.90;;;;;;5072862;28;20400;-64
2021/08/31 12:48:17;;;;;;;3.50;3.20;;;20.40;99.90;;;;;;5072337;28;20409;-64
2021/08/31 12:50:54;;;;;;;2.37;2.03;;;20.40;99.90;;;;;;5072815;28;20796;-65
2021/08/31 12:53:37;;;;;;;3.23;3.03;;;20.40;99.90;;;;;;5072459;28;20226;-65
2021/08/31 12:56:09;;;;;;;3.40;3.10;;;20.40;99.90;;;;;;5071526;28;20407;-64